sensor_id;sensor_type;location;lat;lon;timestamp;temperature;humidity
48752;DHT22;34544;48.836;9.174;2022-12-29T00:01:36;10.00;99.90
48752;DHT22;34544;48.836;9.174;2022-12-29T00:04:02;10.10;99.90
48752;DHT22;34544;48.836;9.174;2022-12-29T00:06:28;10.10;99.90
48752;DHT22;34544;48.836;9.174;2022-12-29T00:08:54;10.10;99.90
48752;DHT22;34544;48.836;9.174;2022-12-29T00:11:23;10.10;99.90
48752;DHT22;34544;48.836;9.174;2022-12-29T00:13:50;10.20;99.90
48752;DHT22;34544;48.836;9.174;2022-12-29T00:16:34;10.10;99.90
48752;DHT22;34544;48.836;9.174;2022-12-29T00:19:00;10.20;99.90
48752;DHT22;34544;48.836;9.174;2022-12-29T00:21:26;10.20;99.90
48752;DHT22;34544;48.836;9.174;2022-12-29T00:24:14;10.10;99.90
48752;DHT22;34544;48.836;9.174;2022-12-29T00:26:55;10.20;99.90
48752;DHT22;34544;48.836;9.174;2022-12-29T00:29:39;10.20;99.90
48752;DHT22;34544;48.836;9.174;2022-12-29T00:32:23;10.20;99.90
48752;DHT22;34544;48.836;9.174;2022-12-29T00:35:09;10.30;99.90
48752;DHT22;34544;48.836;9.174;2022-12-29T00:37:37;10.30;99.90
48752;DHT22;34544;48.836;9.174;2022-12-29T00:40:22;10.30;99.90
48752;DHT22;34544;48.836;9.174;2022-12-29T00:43:06;10.30;99.90
48752;DHT22;34544;48.836;9.174;2022-12-29T00:45:50;10.40;99.90
48752;DHT22;34544;48.836;9.174;2022-12-29T00:48:16;10.40;99.90
48752;DHT22;34544;48.836;9.174;2022-12-29T00:51:01;10.50;99.90
48752;DHT22;34544;48.836;9.174;2022-12-29T00:53:27;10.50;99.90
48752;DHT22;34544;48.836;9.174;2022-12-29T00:55:53;10.50;99.90
48752;DHT22;34544;48.836;9.174;2022-12-29T00:58:19;10.50;99.90
48752;DHT22;34544;48.836;9.174;2022-12-29T01:00:44;10.50;99.90
48752;DHT22;34544;48.836;9.174;2022-12-29T01:03:11;10.60;99.90
48752;DHT22;34544;48.836;9.174;2022-12-29T01:05:37;10.60;99.90
48752;DHT22;34544;48.836;9.174;2022-12-29T01:08:02;10.50;99.90
48752;DHT22;34544;48.836;9.174;2022-12-29T01:10:28;10.60;99.90
48752;DHT22;34544;48.836;9.174;2022-12-29T01:12:54;10.60;99.90
48752;DHT22;34544;48.836;9.174;2022-12-29T01:15:19;10.50;99.90
48752;DHT22;34544;48.836;9.174;2022-12-29T01:17:46;10.50;99.90
48752;DHT22;34544;48.836;9.174;2022-12-29T01:20:12;10.60;99.90
48752;DHT22;34544;48.836;9.174;2022-12-29T01:22:38;10.50;99.90
48752;DHT22;34544;48.836;9.174;2022-12-29T01:25:04;10.50;99.90
48752;DHT22;34544;48.836;9.174;2022-12-29T01:27:30;10.50;99.90
48752;DHT22;34544;48.836;9.174;2022-12-29T01:29:55;10.50;99.90
48752;DHT22;34544;48.836;9.174;2022-12-29T01:32:21;10.50;99.90
48752;DHT22;34544;48.836;9.174;2022-12-29T01:34:47;10.40;99.90
48752;DHT22;34544;48.836;9.174;2022-12-29T01:37:12;10.40;99.90
48752;DHT22;34544;48.836;9.174;2022-12-29T01:39:38;10.40;99.90
48752;DHT22;34544;48.836;9.174;2022-12-29T01:42:03;10.40;99.90
48752;DHT22;34544;48.836;9.174;2022-12-29T01:47:07;10.40;99.90
48752;DHT22;34544;48.836;9.174;2022-12-29T01:49:33;10.30;99.90
48752;DHT22;34544;48.836;9.174;2022-12-29T01:52:00;10.40;99.90
48752;DHT22;34544;48.836;9.174;2022-12-29T01:54:30;10.30;99.90
48752;DHT22;34544;48.836;9.174;2022-12-29T01:56:57;10.30;99.90
48752;DHT22;34544;48.836;9.174;2022-12-29T01:59:24;10.30;99.90
48752;DHT22;34544;48.836;9.174;2022-12-29T02:01:52;10.30;99.90
48752;DHT22;34544;48.836;9.174;2022-12-29T02:04:18;10.30;99.90
48752;DHT22;34544;48.836;9.174;2022-12-29T02:06:51;10.30;99.90
48752;DHT22;34544;48.836;9.174;2022-12-29T02:09:18;10.30;99.90
48752;DHT22;34544;48.836;9.174;2022-12-29T02:11:44;10.40;99.90
48752;DHT22;34544;48.836;9.174;2022-12-29T02:14:10;10.40;99.90
48752;DHT22;34544;48.836;9.174;2022-12-29T02:16:40;10.40;99.90
48752;DHT22;34544;48.836;9.174;2022-12-29T02:19:54;10.40;99.90
48752;DHT22;34544;48.836;9.174;2022-12-29T02:30:00;10.50;99.90
48752;DHT22;34544;48.836;9.174;2022-12-29T02:32:37;10.60;99.90
48752;DHT22;34544;48.836;9.174;2022-12-29T02:35:23;10.60;99.90
48752;DHT22;34544;48.836;9.174;2022-12-29T02:45:30;10.70;99.90
48752;DHT22;34544;48.836;9.174;2022-12-29T02:50:25;10.70;99.90
48752;DHT22;34544;48.836;9.174;2022-12-29T02:52:59;10.70;99.90
48752;DHT22;34544;48.836;9.174;2022-12-29T02:55:25;10.70;99.90
48752;DHT22;34544;48.836;9.174;2022-12-29T03:00:37;10.70;99.90
48752;DHT22;34544;48.836;9.174;2022-12-29T03:03:08;10.70;99.90
48752;DHT22;34544;48.836;9.174;2022-12-29T03:13:19;10.70;99.90
48752;DHT22;34544;48.836;9.174;2022-12-29T03:16:25;10.70;99.90
48752;DHT22;34544;48.836;9.174;2022-12-29T03:21:22;10.70;99.90
48752;DHT22;34544;48.836;9.174;2022-12-29T03:24:13;10.70;99.90
48752;DHT22;34544;48.836;9.174;2022-12-29T03:26:39;10.70;99.90
48752;DHT22;34544;48.836;9.174;2022-12-29T03:29:06;10.70;99.90
48752;DHT22;34544;48.836;9.174;2022-12-29T03:31:35;10.80;99.90
48752;DHT22;34544;48.836;9.174;2022-12-29T03:34:01;10.80;99.90
48752;DHT22;34544;48.836;9.174;2022-12-29T03:36:30;10.80;99.90
48752;DHT22;34544;48.836;9.174;2022-12-29T03:38:59;10.80;99.90
48752;DHT22;34544;48.836;9.174;2022-12-29T03:41:28;10.80;99.90
48752;DHT22;34544;48.836;9.174;2022-12-29T03:43:56;10.70;99.90
48752;DHT22;34544;48.836;9.174;2022-12-29T03:46:22;10.80;99.90
48752;DHT22;34544;48.836;9.174;2022-12-29T03:48:47;10.80;99.90
48752;DHT22;34544;48.836;9.174;2022-12-29T03:51:13;10.90;99.90
48752;DHT22;34544;48.836;9.174;2022-12-29T03:53:38;10.90;99.90
48752;DHT22;34544;48.836;9.174;2022-12-29T03:56:04;11.00;99.90
48752;DHT22;34544;48.836;9.174;2022-12-29T03:58:31;11.00;99.90
48752;DHT22;34544;48.836;9.174;2022-12-29T04:01:06;10.90;99.90
48752;DHT22;34544;48.836;9.174;2022-12-29T04:03:35;10.90;99.90
48752;DHT22;34544;48.836;9.174;2022-12-29T04:06:00;10.80;99.90
48752;DHT22;34544;48.836;9.174;2022-12-29T04:08:29;10.70;99.90
48752;DHT22;34544;48.836;9.174;2022-12-29T04:10:54;10.60;99.90
48752;DHT22;34544;48.836;9.174;2022-12-29T04:13:21;10.60;99.90
48752;DHT22;34544;48.836;9.174;2022-12-29T04:15:47;10.50;99.90
48752;DHT22;34544;48.836;9.174;2022-12-29T04:18:13;10.50;99.90
48752;DHT22;34544;48.836;9.174;2022-12-29T04:20:38;10.50;99.90
48752;DHT22;34544;48.836;9.174;2022-12-29T04:23:23;10.50;99.90
48752;DHT22;34544;48.836;9.174;2022-12-29T04:25:48;10.60;99.90
48752;DHT22;34544;48.836;9.174;2022-12-29T04:28:15;10.70;99.90
48752;DHT22;34544;48.836;9.174;2022-12-29T04:31:04;10.80;99.90
48752;DHT22;34544;48.836;9.174;2022-12-29T04:33:39;10.90;99.90
48752;DHT22;34544;48.836;9.174;2022-12-29T04:36:05;11.00;99.90
48752;DHT22;34544;48.836;9.174;2022-12-29T04:38:32;11.20;99.90
48752;DHT22;34544;48.836;9.174;2022-12-29T04:41:00;11.30;99.90
48752;DHT22;34544;48.836;9.174;2022-12-29T04:43:26;11.30;99.90
48752;DHT22;34544;48.836;9.174;2022-12-29T04:46:10;11.40;99.90
48752;DHT22;34544;48.836;9.174;2022-12-29T04:49:11;11.40;99.90
48752;DHT22;34544;48.836;9.174;2022-12-29T04:51:45;11.40;99.90
48752;DHT22;34544;48.836;9.174;2022-12-29T04:54:13;11.40;99.90
48752;DHT22;34544;48.836;9.174;2022-12-29T04:56:39;11.40;99.90
48752;DHT22;34544;48.836;9.174;2022-12-29T04:59:05;11.40;99.90
48752;DHT22;34544;48.836;9.174;2022-12-29T05:01:30;11.30;99.90
48752;DHT22;34544;48.836;9.174;2022-12-29T05:03:57;11.40;99.90
48752;DHT22;34544;48.836;9.174;2022-12-29T05:06:23;11.30;99.90
48752;DHT22;34544;48.836;9.174;2022-12-29T05:08:49;11.30;99.90
48752;DHT22;34544;48.836;9.174;2022-12-29T05:11:15;11.30;99.90
48752;DHT22;34544;48.836;9.174;2022-12-29T05:13:44;11.30;99.90
48752;DHT22;34544;48.836;9.174;2022-12-29T05:16:10;11.30;99.90
48752;DHT22;34544;48.836;9.174;2022-12-29T05:18:36;11.30;99.90
48752;DHT22;34544;48.836;9.174;2022-12-29T05:21:03;11.30;99.90
48752;DHT22;34544;48.836;9.174;2022-12-29T05:23:28;11.30;99.90
48752;DHT22;34544;48.836;9.174;2022-12-29T05:26:04;11.30;99.90
48752;DHT22;34544;48.836;9.174;2022-12-29T05:28:45;11.30;99.90
48752;DHT22;34544;48.836;9.174;2022-12-29T05:31:15;11.20;99.90
48752;DHT22;34544;48.836;9.174;2022-12-29T05:33:42;11.30;99.90
48752;DHT22;34544;48.836;9.174;2022-12-29T05:36:08;11.30;99.90
48752;DHT22;34544;48.836;9.174;2022-12-29T05:38:36;11.30;99.90
48752;DHT22;34544;48.836;9.174;2022-12-29T05:41:01;11.30;99.90
48752;DHT22;34544;48.836;9.174;2022-12-29T05:43:56;11.30;99.90
48752;DHT22;34544;48.836;9.174;2022-12-29T05:46:48;11.30;99.90
48752;DHT22;34544;48.836;9.174;2022-12-29T05:49:23;11.40;99.90
48752;DHT22;34544;48.836;9.174;2022-12-29T05:51:56;11.50;99.90
48752;DHT22;34544;48.836;9.174;2022-12-29T05:54:22;11.50;99.90
48752;DHT22;34544;48.836;9.174;2022-12-29T05:56:47;11.60;99.90
48752;DHT22;34544;48.836;9.174;2022-12-29T05:59:13;11.70;99.90
48752;DHT22;34544;48.836;9.174;2022-12-29T06:01:39;11.80;99.90
48752;DHT22;34544;48.836;9.174;2022-12-29T06:04:04;11.80;99.90
48752;DHT22;34544;48.836;9.174;2022-12-29T06:06:31;11.90;99.90
48752;DHT22;34544;48.836;9.174;2022-12-29T06:08:56;11.90;99.90
48752;DHT22;34544;48.836;9.174;2022-12-29T06:11:23;11.90;99.90
48752;DHT22;34544;48.836;9.174;2022-12-29T06:13:52;11.90;99.90
48752;DHT22;34544;48.836;9.174;2022-12-29T06:16:18;11.90;99.90
48752;DHT22;34544;48.836;9.174;2022-12-29T06:18:44;11.80;99.90
48752;DHT22;34544;48.836;9.174;2022-12-29T06:21:10;11.70;99.90
48752;DHT22;34544;48.836;9.174;2022-12-29T06:23:36;11.60;99.90
48752;DHT22;34544;48.836;9.174;2022-12-29T06:26:03;11.60;99.90
48752;DHT22;34544;48.836;9.174;2022-12-29T06:28:29;11.50;99.90
48752;DHT22;34544;48.836;9.174;2022-12-29T06:30:54;11.40;99.90
48752;DHT22;34544;48.836;9.174;2022-12-29T06:33:20;11.40;99.90
48752;DHT22;34544;48.836;9.174;2022-12-29T06:35:46;11.40;99.90
48752;DHT22;34544;48.836;9.174;2022-12-29T06:38:12;11.40;99.90
48752;DHT22;34544;48.836;9.174;2022-12-29T06:40:37;11.40;99.90
48752;DHT22;34544;48.836;9.174;2022-12-29T06:43:26;11.40;99.90
48752;DHT22;34544;48.836;9.174;2022-12-29T06:46:05;11.50;99.90
48752;DHT22;34544;48.836;9.174;2022-12-29T06:48:30;11.50;99.90
48752;DHT22;34544;48.836;9.174;2022-12-29T06:50:56;11.50;99.90
48752;DHT22;34544;48.836;9.174;2022-12-29T06:53:22;11.60;99.90
48752;DHT22;34544;48.836;9.174;2022-12-29T06:55:47;11.50;99.90
48752;DHT22;34544;48.836;9.174;2022-12-29T06:58:13;11.50;99.90
48752;DHT22;34544;48.836;9.174;2022-12-29T07:00:38;11.50;99.90
48752;DHT22;34544;48.836;9.174;2022-12-29T07:03:04;11.40;99.90
48752;DHT22;34544;48.836;9.174;2022-12-29T07:05:30;11.40;99.90
48752;DHT22;34544;48.836;9.174;2022-12-29T07:07:57;11.40;99.90
48752;DHT22;34544;48.836;9.174;2022-12-29T07:10:23;11.40;99.90
48752;DHT22;34544;48.836;9.174;2022-12-29T07:12:49;11.40;99.90
48752;DHT22;34544;48.836;9.174;2022-12-29T07:15:14;11.40;99.90
48752;DHT22;34544;48.836;9.174;2022-12-29T07:17:40;11.40;99.90
48752;DHT22;34544;48.836;9.174;2022-12-29T07:20:06;11.40;99.90
48752;DHT22;34544;48.836;9.174;2022-12-29T07:22:32;11.30;99.90
48752;DHT22;34544;48.836;9.174;2022-12-29T07:24:57;11.30;99.90
48752;DHT22;34544;48.836;9.174;2022-12-29T07:27:23;11.20;99.90
48752;DHT22;34544;48.836;9.174;2022-12-29T07:29:48;11.10;99.90
48752;DHT22;34544;48.836;9.174;2022-12-29T07:32:14;11.10;99.90
48752;DHT22;34544;48.836;9.174;2022-12-29T07:34:39;11.10;99.90
48752;DHT22;34544;48.836;9.174;2022-12-29T07:37:05;11.10;99.90
48752;DHT22;34544;48.836;9.174;2022-12-29T07:39:31;11.10;99.90
48752;DHT22;34544;48.836;9.174;2022-12-29T07:41:56;11.10;99.90
48752;DHT22;34544;48.836;9.174;2022-12-29T07:44:24;11.00;99.90
48752;DHT22;34544;48.836;9.174;2022-12-29T07:47:11;11.00;99.90
48752;DHT22;34544;48.836;9.174;2022-12-29T07:49:36;11.00;99.90
48752;DHT22;34544;48.836;9.174;2022-12-29T07:52:02;11.00;99.90
48752;DHT22;34544;48.836;9.174;2022-12-29T07:54:28;11.00;99.90
48752;DHT22;34544;48.836;9.174;2022-12-29T07:56:53;11.00;99.90
48752;DHT22;34544;48.836;9.174;2022-12-29T07:59:19;11.00;99.90
48752;DHT22;34544;48.836;9.174;2022-12-29T08:01:44;11.00;99.90
48752;DHT22;34544;48.836;9.174;2022-12-29T08:04:10;11.00;99.90
48752;DHT22;34544;48.836;9.174;2022-12-29T08:06:36;10.90;99.90
48752;DHT22;34544;48.836;9.174;2022-12-29T08:09:03;11.00;99.90
48752;DHT22;34544;48.836;9.174;2022-12-29T08:11:28;11.00;99.90
48752;DHT22;34544;48.836;9.174;2022-12-29T08:13:54;11.00;99.90
48752;DHT22;34544;48.836;9.174;2022-12-29T08:16:19;11.10;99.90
48752;DHT22;34544;48.836;9.174;2022-12-29T08:18:45;11.10;99.90
48752;DHT22;34544;48.836;9.174;2022-12-29T08:21:11;11.20;99.90
48752;DHT22;34544;48.836;9.174;2022-12-29T08:23:36;11.20;99.90
48752;DHT22;34544;48.836;9.174;2022-12-29T08:26:03;11.30;99.90
48752;DHT22;34544;48.836;9.174;2022-12-29T08:28:28;11.30;99.90
48752;DHT22;34544;48.836;9.174;2022-12-29T08:30:56;11.30;99.90
48752;DHT22;34544;48.836;9.174;2022-12-29T08:33:22;11.30;99.90
48752;DHT22;34544;48.836;9.174;2022-12-29T08:35:48;11.40;99.90
48752;DHT22;34544;48.836;9.174;2022-12-29T08:38:13;11.40;99.90
48752;DHT22;34544;48.836;9.174;2022-12-29T08:40:39;11.40;99.90
48752;DHT22;34544;48.836;9.174;2022-12-29T08:43:04;11.40;99.90
48752;DHT22;34544;48.836;9.174;2022-12-29T08:45:30;11.40;99.90
48752;DHT22;34544;48.836;9.174;2022-12-29T08:47:56;11.40;99.90
48752;DHT22;34544;48.836;9.174;2022-12-29T08:50:23;11.40;99.90
48752;DHT22;34544;48.836;9.174;2022-12-29T08:52:51;11.40;99.90
48752;DHT22;34544;48.836;9.174;2022-12-29T08:55:17;11.40;99.90
48752;DHT22;34544;48.836;9.174;2022-12-29T08:57:43;11.40;99.90
48752;DHT22;34544;48.836;9.174;2022-12-29T09:00:15;11.40;99.90
48752;DHT22;34544;48.836;9.174;2022-12-29T09:02:41;11.40;99.90
48752;DHT22;34544;48.836;9.174;2022-12-29T09:05:07;11.40;99.90
48752;DHT22;34544;48.836;9.174;2022-12-29T09:07:32;11.40;99.90
48752;DHT22;34544;48.836;9.174;2022-12-29T09:09:58;11.40;99.90
48752;DHT22;34544;48.836;9.174;2022-12-29T09:12:23;11.50;99.90
48752;DHT22;34544;48.836;9.174;2022-12-29T09:14:49;11.60;99.90
48752;DHT22;34544;48.836;9.174;2022-12-29T09:17:14;11.60;99.90
48752;DHT22;34544;48.836;9.174;2022-12-29T09:19:59;11.70;99.90
48752;DHT22;34544;48.836;9.174;2022-12-29T09:22:24;11.80;99.90
48752;DHT22;34544;48.836;9.174;2022-12-29T09:24:50;11.80;99.90
48752;DHT22;34544;48.836;9.174;2022-12-29T09:27:15;11.90;99.90
48752;DHT22;34544;48.836;9.174;2022-12-29T09:29:41;12.00;99.90
48752;DHT22;34544;48.836;9.174;2022-12-29T09:32:06;12.10;99.90
48752;DHT22;34544;48.836;9.174;2022-12-29T09:34:32;12.20;99.90
48752;DHT22;34544;48.836;9.174;2022-12-29T09:36:58;12.30;99.90
48752;DHT22;34544;48.836;9.174;2022-12-29T09:39:23;12.30;99.90
48752;DHT22;34544;48.836;9.174;2022-12-29T09:41:50;12.40;99.90
48752;DHT22;34544;48.836;9.174;2022-12-29T09:44:20;12.40;99.90
48752;DHT22;34544;48.836;9.174;2022-12-29T09:46:49;12.50;99.90
48752;DHT22;34544;48.836;9.174;2022-12-29T09:52:14;12.70;99.90
48752;DHT22;34544;48.836;9.174;2022-12-29T09:54:49;12.90;99.90
48752;DHT22;34544;48.836;9.174;2022-12-29T09:57:26;13.00;99.90
48752;DHT22;34544;48.836;9.174;2022-12-29T09:59:57;13.20;99.90
48752;DHT22;34544;48.836;9.174;2022-12-29T10:02:37;13.50;99.90
48752;DHT22;34544;48.836;9.174;2022-12-29T10:05:04;13.60;99.90
48752;DHT22;34544;48.836;9.174;2022-12-29T10:08:37;13.60;99.90
48752;DHT22;34544;48.836;9.174;2022-12-29T10:10:37;13.60;99.90
48752;DHT22;34544;48.836;9.174;2022-12-29T10:20:54;13.70;99.90
48752;DHT22;34544;48.836;9.174;2022-12-29T10:23:35;13.80;99.90
48752;DHT22;34544;48.836;9.174;2022-12-29T10:26:04;13.80;99.90
48752;DHT22;34544;48.836;9.174;2022-12-29T10:28:47;13.80;99.90
48752;DHT22;34544;48.836;9.174;2022-12-29T10:31:24;13.90;99.90
48752;DHT22;34544;48.836;9.174;2022-12-29T10:34:00;13.90;99.90
48752;DHT22;34544;48.836;9.174;2022-12-29T10:36:43;13.90;99.90
48752;DHT22;34544;48.836;9.174;2022-12-29T10:39:23;14.00;99.90
48752;DHT22;34544;48.836;9.174;2022-12-29T10:41:57;14.00;99.90
48752;DHT22;34544;48.836;9.174;2022-12-29T10:44:29;14.00;99.90
48752;DHT22;34544;48.836;9.174;2022-12-29T10:46:58;14.10;99.90
48752;DHT22;34544;48.836;9.174;2022-12-29T10:49:26;14.10;99.90
48752;DHT22;34544;48.836;9.174;2022-12-29T10:51:53;14.10;99.90
48752;DHT22;34544;48.836;9.174;2022-12-29T10:54:27;14.20;99.90
48752;DHT22;34544;48.836;9.174;2022-12-29T10:57:03;14.30;99.90
48752;DHT22;34544;48.836;9.174;2022-12-29T10:59:30;14.30;99.90
48752;DHT22;34544;48.836;9.174;2022-12-29T11:04:28;14.50;99.90
48752;DHT22;34544;48.836;9.174;2022-12-29T11:06:57;14.50;99.90
48752;DHT22;34544;48.836;9.174;2022-12-29T11:09:34;14.50;99.90
48752;DHT22;34544;48.836;9.174;2022-12-29T11:12:01;14.60;99.90
48752;DHT22;34544;48.836;9.174;2022-12-29T11:14:31;14.60;99.90
48752;DHT22;34544;48.836;9.174;2022-12-29T11:17:03;14.60;99.90
48752;DHT22;34544;48.836;9.174;2022-12-29T11:19:29;14.60;99.90
48752;DHT22;34544;48.836;9.174;2022-12-29T11:22:11;14.70;99.90
48752;DHT22;34544;48.836;9.174;2022-12-29T11:24:43;14.70;99.90
48752;DHT22;34544;48.836;9.174;2022-12-29T11:27:14;14.60;99.90
48752;DHT22;34544;48.836;9.174;2022-12-29T11:29:40;14.60;99.90
48752;DHT22;34544;48.836;9.174;2022-12-29T11:32:10;14.50;99.90
48752;DHT22;34544;48.836;9.174;2022-12-29T11:34:36;14.50;99.90
48752;DHT22;34544;48.836;9.174;2022-12-29T11:37:03;14.50;99.90
48752;DHT22;34544;48.836;9.174;2022-12-29T11:41:54;14.50;99.90
48752;DHT22;34544;48.836;9.174;2022-12-29T11:44:20;14.40;99.90
48752;DHT22;34544;48.836;9.174;2022-12-29T11:46:46;14.40;99.90
48752;DHT22;34544;48.836;9.174;2022-12-29T11:49:13;14.30;99.90
48752;DHT22;34544;48.836;9.174;2022-12-29T11:51:45;14.30;99.90
48752;DHT22;34544;48.836;9.174;2022-12-29T11:54:16;14.20;99.90
48752;DHT22;34544;48.836;9.174;2022-12-29T11:56:43;14.20;99.90
48752;DHT22;34544;48.836;9.174;2022-12-29T12:01:55;14.10;99.90
48752;DHT22;34544;48.836;9.174;2022-12-29T12:04:23;14.10;99.90
48752;DHT22;34544;48.836;9.174;2022-12-29T12:09:19;13.80;99.90
48752;DHT22;34544;48.836;9.174;2022-12-29T12:11:47;13.70;99.90
48752;DHT22;34544;48.836;9.174;2022-12-29T12:14:27;13.60;99.90
48752;DHT22;34544;48.836;9.174;2022-12-29T12:17:42;13.50;99.90
48752;DHT22;34544;48.836;9.174;2022-12-29T12:20:19;13.30;99.90
48752;DHT22;34544;48.836;9.174;2022-12-29T12:25:39;13.30;99.90
48752;DHT22;34544;48.836;9.174;2022-12-29T12:28:10;13.30;99.90
48752;DHT22;34544;48.836;9.174;2022-12-29T12:30:40;13.30;99.90
48752;DHT22;34544;48.836;9.174;2022-12-29T12:47:03;13.80;99.90
48752;DHT22;34544;48.836;9.174;2022-12-29T12:49:07;13.80;99.90
48752;DHT22;34544;48.836;9.174;2022-12-29T13:00:00;14.00;99.90
48752;DHT22;34544;48.836;9.174;2022-12-29T13:02:43;14.00;99.90
48752;DHT22;34544;48.836;9.174;2022-12-29T13:05:24;14.10;99.90
48752;DHT22;34544;48.836;9.174;2022-12-29T13:10:39;14.30;99.90
48752;DHT22;34544;48.836;9.174;2022-12-29T13:18:39;14.20;99.90
48752;DHT22;34544;48.836;9.174;2022-12-29T13:21:15;14.10;99.90
48752;DHT22;34544;48.836;9.174;2022-12-29T13:23:52;14.00;99.90
48752;DHT22;34544;48.836;9.174;2022-12-29T13:26:31;14.00;99.90
48752;DHT22;34544;48.836;9.174;2022-12-29T13:29:16;13.90;99.90
48752;DHT22;34544;48.836;9.174;2022-12-29T13:31:47;13.90;99.90
48752;DHT22;34544;48.836;9.174;2022-12-29T13:34:19;13.80;99.90
48752;DHT22;34544;48.836;9.174;2022-12-29T13:37:00;13.80;99.90
48752;DHT22;34544;48.836;9.174;2022-12-29T13:39:47;13.70;99.90
48752;DHT22;34544;48.836;9.174;2022-12-29T13:42:14;13.60;99.90
48752;DHT22;34544;48.836;9.174;2022-12-29T13:44:46;13.60;99.90
48752;DHT22;34544;48.836;9.174;2022-12-29T13:49:58;13.50;99.90
48752;DHT22;34544;48.836;9.174;2022-12-29T13:52:33;13.50;99.90
48752;DHT22;34544;48.836;9.174;2022-12-29T13:55:18;13.50;99.90
48752;DHT22;34544;48.836;9.174;2022-12-29T13:58:08;13.50;99.90
48752;DHT22;34544;48.836;9.174;2022-12-29T14:00:44;13.40;99.90
48752;DHT22;34544;48.836;9.174;2022-12-29T14:03:28;13.40;99.90
48752;DHT22;34544;48.836;9.174;2022-12-29T14:06:11;13.40;99.90
48752;DHT22;34544;48.836;9.174;2022-12-29T14:08:37;13.40;99.90
48752;DHT22;34544;48.836;9.174;2022-12-29T14:11:09;13.40;99.90
48752;DHT22;34544;48.836;9.174;2022-12-29T14:13:39;13.40;99.90
48752;DHT22;34544;48.836;9.174;2022-12-29T14:16:05;13.40;99.90
48752;DHT22;34544;48.836;9.174;2022-12-29T14:18:32;13.30;99.90
48752;DHT22;34544;48.836;9.174;2022-12-29T14:23:44;13.30;99.90
48752;DHT22;34544;48.836;9.174;2022-12-29T14:28:43;13.20;99.90
48752;DHT22;34544;48.836;9.174;2022-12-29T14:33:41;13.20;99.90
48752;DHT22;34544;48.836;9.174;2022-12-29T14:36:25;13.20;99.90
48752;DHT22;34544;48.836;9.174;2022-12-29T14:38:52;13.20;99.90
48752;DHT22;34544;48.836;9.174;2022-12-29T14:43:53;13.20;99.90
48752;DHT22;34544;48.836;9.174;2022-12-29T14:46:19;13.10;99.90
48752;DHT22;34544;48.836;9.174;2022-12-29T14:48:45;13.00;99.90
48752;DHT22;34544;48.836;9.174;2022-12-29T14:51:21;13.00;99.90
48752;DHT22;34544;48.836;9.174;2022-12-29T14:53:51;13.00;99.90
48752;DHT22;34544;48.836;9.174;2022-12-29T14:56:17;12.90;99.90
48752;DHT22;34544;48.836;9.174;2022-12-29T14:58:51;12.90;99.90
48752;DHT22;34544;48.836;9.174;2022-12-29T15:01:22;12.90;99.90
48752;DHT22;34544;48.836;9.174;2022-12-29T15:03:50;12.90;99.90
48752;DHT22;34544;48.836;9.174;2022-12-29T15:06:17;12.90;99.90
48752;DHT22;34544;48.836;9.174;2022-12-29T15:08:51;12.80;99.90
48752;DHT22;34544;48.836;9.174;2022-12-29T15:11:22;12.80;99.90
48752;DHT22;34544;48.836;9.174;2022-12-29T15:13:48;12.70;99.90
48752;DHT22;34544;48.836;9.174;2022-12-29T15:16:21;12.70;99.90
48752;DHT22;34544;48.836;9.174;2022-12-29T15:18:47;12.60;99.90
48752;DHT22;34544;48.836;9.174;2022-12-29T15:21:13;12.60;99.90
48752;DHT22;34544;48.836;9.174;2022-12-29T15:23:39;12.50;99.90
48752;DHT22;34544;48.836;9.174;2022-12-29T15:26:07;12.40;99.90
48752;DHT22;34544;48.836;9.174;2022-12-29T15:28:44;12.40;99.90
48752;DHT22;34544;48.836;9.174;2022-12-29T15:31:14;12.30;99.90
48752;DHT22;34544;48.836;9.174;2022-12-29T15:33:41;12.30;99.90
48752;DHT22;34544;48.836;9.174;2022-12-29T15:36:10;12.30;99.90
48752;DHT22;34544;48.836;9.174;2022-12-29T15:38:38;12.30;99.90
48752;DHT22;34544;48.836;9.174;2022-12-29T15:41:15;12.30;99.90
48752;DHT22;34544;48.836;9.174;2022-12-29T15:46:30;12.30;99.90
48752;DHT22;34544;48.836;9.174;2022-12-29T15:48:56;12.10;99.90
48752;DHT22;34544;48.836;9.174;2022-12-29T15:51:24;11.80;99.90
48752;DHT22;34544;48.836;9.174;2022-12-29T15:53:52;11.50;99.90
48752;DHT22;34544;48.836;9.174;2022-12-29T15:56:19;11.30;99.90
48752;DHT22;34544;48.836;9.174;2022-12-29T15:58:48;11.20;99.90
48752;DHT22;34544;48.836;9.174;2022-12-29T16:01:19;11.00;99.90
48752;DHT22;34544;48.836;9.174;2022-12-29T16:03:49;10.90;99.90
48752;DHT22;34544;48.836;9.174;2022-12-29T16:06:25;10.80;99.90
48752;DHT22;34544;48.836;9.174;2022-12-29T16:11:24;10.70;99.90
48752;DHT22;34544;48.836;9.174;2022-12-29T16:13:50;10.70;99.90
48752;DHT22;34544;48.836;9.174;2022-12-29T16:16:21;10.70;99.90
48752;DHT22;34544;48.836;9.174;2022-12-29T16:18:49;10.60;99.90
48752;DHT22;34544;48.836;9.174;2022-12-29T16:21:16;10.60;99.90
48752;DHT22;34544;48.836;9.174;2022-12-29T16:23:44;10.60;99.90
48752;DHT22;34544;48.836;9.174;2022-12-29T16:26:18;10.60;99.90
48752;DHT22;34544;48.836;9.174;2022-12-29T16:28:47;10.50;99.90
48752;DHT22;34544;48.836;9.174;2022-12-29T16:33:45;10.50;99.90
48752;DHT22;34544;48.836;9.174;2022-12-29T16:36:24;10.40;99.90
48752;DHT22;34544;48.836;9.174;2022-12-29T16:38:50;10.40;99.90
48752;DHT22;34544;48.836;9.174;2022-12-29T16:41:29;10.40;99.90
48752;DHT22;34544;48.836;9.174;2022-12-29T16:44:11;10.40;99.90
48752;DHT22;34544;48.836;9.174;2022-12-29T16:46:40;10.40;99.90
48752;DHT22;34544;48.836;9.174;2022-12-29T16:49:13;10.40;99.90
48752;DHT22;34544;48.836;9.174;2022-12-29T16:51:40;10.30;99.90
48752;DHT22;34544;48.836;9.174;2022-12-29T16:54:05;10.30;99.90
48752;DHT22;34544;48.836;9.174;2022-12-29T16:56:33;10.30;99.90
48752;DHT22;34544;48.836;9.174;2022-12-29T16:59:04;10.30;99.90
48752;DHT22;34544;48.836;9.174;2022-12-29T17:01:31;10.30;99.90
48752;DHT22;34544;48.836;9.174;2022-12-29T17:03:57;10.30;99.90
48752;DHT22;34544;48.836;9.174;2022-12-29T17:06:24;10.20;99.90
48752;DHT22;34544;48.836;9.174;2022-12-29T17:08:50;10.20;99.90
48752;DHT22;34544;48.836;9.174;2022-12-29T17:11:23;10.10;99.90
48752;DHT22;34544;48.836;9.174;2022-12-29T17:14:16;10.20;99.90
48752;DHT22;34544;48.836;9.174;2022-12-29T17:16:42;10.10;99.90
48752;DHT22;34544;48.836;9.174;2022-12-29T17:19:10;10.10;99.90
48752;DHT22;34544;48.836;9.174;2022-12-29T17:21:37;10.10;99.90
48752;DHT22;34544;48.836;9.174;2022-12-29T17:24:04;10.10;99.90
48752;DHT22;34544;48.836;9.174;2022-12-29T17:26:29;10.10;99.90
48752;DHT22;34544;48.836;9.174;2022-12-29T17:28:55;10.10;99.90
48752;DHT22;34544;48.836;9.174;2022-12-29T17:31:21;10.10;99.90
48752;DHT22;34544;48.836;9.174;2022-12-29T17:33:46;10.10;99.90
48752;DHT22;34544;48.836;9.174;2022-12-29T17:36:13;10.10;99.90